createdAt,value
2018-01-19T00:02:01.820Z,6.10
2018-01-19T00:04:33.948Z,6.37
2018-01-19T00:07:01.711Z,6.40
2018-01-19T00:09:29.476Z,6.43
2018-01-19T00:11:57.707Z,6.80
2018-01-19T00:14:25.912Z,6.60
2018-01-19T00:16:54.138Z,6.13
2018-01-19T00:19:22.129Z,6.27
2018-01-19T00:21:54.123Z,6.70
2018-01-19T00:24:24.348Z,6.87
2018-01-19T00:26:52.719Z,7.43
2018-01-19T00:29:20.968Z,6.83
2018-01-19T00:31:53.171Z,6.63
2018-01-19T00:34:25.270Z,6.67
2018-01-19T00:36:53.461Z,7.03
2018-01-19T00:39:23.574Z,7.00
2018-01-19T00:41:51.743Z,7.00
2018-01-19T00:44:19.977Z,7.03
2018-01-19T00:46:52.958Z,6.80
2018-01-19T00:49:20.873Z,7.03
2018-01-19T00:51:50.956Z,6.27
2018-01-19T00:54:19.010Z,6.47
2018-01-19T00:56:47.235Z,6.67
2018-01-19T00:59:15.201Z,6.43
2018-01-19T01:01:47.538Z,6.67
2018-01-19T01:04:17.752Z,6.70
2018-01-19T01:06:45.973Z,5.93
2018-01-19T01:09:13.937Z,5.87
2018-01-19T01:11:41.964Z,6.33
2018-01-19T01:14:09.793Z,6.30
2018-01-19T01:16:38.101Z,6.17
2018-01-19T01:19:06.132Z,5.60
2018-01-19T01:21:34.116Z,6.27
2018-01-19T01:24:02.810Z,6.13
2018-01-19T01:26:34.896Z,6.77
2018-01-19T01:29:07.059Z,5.90
2018-01-19T01:31:35.177Z,6.13
2018-01-19T01:34:03.367Z,6.10
2018-01-19T01:36:31.332Z,5.93
2018-01-19T01:38:59.381Z,5.97
2018-01-19T01:41:27.438Z,6.37
2018-01-19T01:43:55.689Z,6.00
2018-01-19T01:46:23.619Z,5.63
2018-01-19T01:49:03.412Z,5.43
2018-01-19T01:51:31.672Z,5.50
2018-01-19T01:53:59.614Z,5.73
2018-01-19T01:56:27.824Z,5.97
2018-01-19T01:58:56.083Z,5.13
2018-01-19T02:01:24.111Z,5.70
2018-01-19T02:03:54.252Z,5.37
2018-01-19T02:06:24.195Z,5.93
2018-01-19T02:08:52.172Z,5.60
2018-01-19T02:11:20.100Z,6.43
2018-01-19T02:13:50.155Z,5.50
2018-01-19T02:16:18.537Z,5.30
2018-01-19T02:18:49.108Z,5.83
2018-01-19T02:21:17.609Z,6.20
2018-01-19T02:23:45.576Z,5.07
2018-01-19T02:26:13.882Z,5.93
2018-01-19T02:28:42.260Z,5.63
2018-01-19T02:31:10.640Z,5.47
2018-01-19T02:33:39.031Z,5.70
2018-01-19T02:36:09.130Z,5.30
2018-01-19T02:38:37.069Z,5.83
2018-01-19T02:41:05.268Z,6.10
2018-01-19T02:43:33.251Z,5.47
2018-01-19T02:46:01.532Z,5.63
2018-01-19T02:48:31.939Z,5.90
2018-01-19T02:50:59.898Z,5.60
2018-01-19T02:53:28.089Z,6.87
2018-01-19T02:55:56.027Z,5.63
2018-01-19T02:58:26.220Z,6.53
2018-01-19T03:00:55.061Z,6.47
2018-01-19T03:03:25.087Z,5.77
2018-01-19T03:05:52.854Z,6.30
2018-01-19T03:08:20.706Z,7.10
2018-01-19T03:10:48.945Z,6.50
2018-01-19T03:13:17.246Z,5.53
2018-01-19T03:15:45.202Z,6.40
2018-01-19T03:18:13.391Z,5.90
2018-01-19T03:20:43.468Z,6.07
2018-01-19T03:23:11.674Z,5.13
2018-01-19T03:25:39.713Z,5.07
2018-01-19T03:28:07.701Z,5.80
2018-01-19T03:30:35.924Z,5.67
2018-01-19T03:33:06.550Z,5.83
2018-01-19T03:35:35.102Z,5.83
2018-01-19T03:38:03.065Z,5.43
2018-01-19T03:40:31.072Z,5.67
2018-01-19T03:42:58.831Z,5.80
2018-01-19T03:45:26.604Z,5.23
2018-01-19T03:47:54.734Z,5.43
2018-01-19T03:50:22.992Z,5.53
2018-01-19T03:52:50.992Z,5.37
2018-01-19T03:55:23.223Z,5.70
2018-01-19T03:57:51.550Z,5.60
2018-01-19T04:00:19.379Z,5.80
2018-01-19T04:02:47.570Z,5.93
2018-01-19T04:05:15.645Z,5.33
2018-01-19T04:07:43.610Z,5.97
2018-01-19T04:10:11.866Z,5.80
2018-01-19T04:12:39.858Z,6.80
2018-01-19T04:15:07.897Z,5.80
2018-01-19T04:17:35.857Z,6.27
2018-01-19T04:20:04.233Z,6.83
2018-01-19T04:22:32.002Z,5.93
2018-01-19T04:24:59.811Z,6.30
2018-01-19T04:27:28.050Z,6.37
2018-01-19T04:29:57.264Z,6.40
2018-01-19T04:32:25.231Z,5.97
2018-01-19T04:34:53.535Z,6.10
2018-01-19T04:37:25.607Z,5.63
2018-01-19T04:39:53.851Z,5.90
2018-01-19T04:42:22.092Z,6.00
2018-01-19T04:44:52.459Z,5.83
2018-01-19T04:47:20.498Z,6.00
2018-01-19T04:49:50.267Z,5.37
2018-01-19T04:52:18.552Z,5.77
2018-01-19T04:54:46.529Z,6.30
2018-01-19T04:57:18.536Z,5.23
2018-01-19T04:59:50.530Z,5.50
2018-01-19T05:02:22.599Z,5.37
2018-01-19T05:04:50.533Z,5.77
2018-01-19T05:07:18.596Z,5.93
2018-01-19T05:09:46.540Z,6.27
2018-01-19T05:12:14.309Z,5.73
2018-01-19T05:14:46.392Z,5.80
2018-01-19T05:17:14.592Z,6.20
2018-01-19T05:19:42.324Z,5.40
2018-01-19T05:22:10.288Z,5.90
2018-01-19T05:24:38.608Z,6.13
2018-01-19T05:27:06.987Z,6.53
2018-01-19T05:29:35.244Z,5.70
2018-01-19T05:32:03.141Z,5.73
2018-01-19T05:34:31.325Z,6.00
2018-01-19T05:36:59.575Z,6.28
2018-01-19T05:39:29.808Z,6.30
2018-01-19T05:41:57.639Z,6.57
2018-01-19T05:44:25.858Z,6.17
2018-01-19T05:46:53.712Z,6.10
2018-01-19T05:49:22.388Z,7.47
2018-01-19T05:51:50.233Z,7.13
2018-01-19T05:54:18.570Z,6.80
2018-01-19T05:56:46.432Z,7.50
2018-01-19T05:59:14.375Z,7.10
2018-01-19T06:01:45.063Z,7.60
2018-01-19T06:04:12.971Z,7.72
2018-01-19T06:06:43.191Z,8.57
2018-01-19T06:09:11.210Z,8.93
2018-01-19T06:11:41.224Z,8.60
2018-01-19T06:14:09.551Z,8.30
2018-01-19T06:16:41.805Z,9.10
2018-01-19T06:19:09.870Z,9.70
2018-01-19T06:21:37.761Z,10.35
2018-01-19T06:24:05.825Z,9.83
2018-01-19T06:26:33.609Z,9.97
2018-01-19T06:29:02.459Z,10.95
2018-01-19T06:31:32.298Z,10.15
2018-01-19T06:34:03.377Z,9.30
2018-01-19T06:36:37.556Z,9.67
2018-01-19T06:39:05.820Z,10.00
2018-01-19T06:41:33.859Z,9.43
2018-01-19T06:44:01.860Z,8.93
2018-01-19T06:46:29.616Z,10.23
2018-01-19T06:48:58.280Z,8.90
2018-01-19T06:51:25.942Z,8.30
2018-01-19T06:53:53.941Z,9.43
2018-01-19T06:56:22.790Z,8.40
2018-01-19T06:58:50.872Z,9.60
2018-01-19T07:01:19.060Z,8.70
2018-01-19T07:03:46.809Z,9.93
2018-01-19T07:06:14.891Z,9.85
2018-01-19T07:08:43.882Z,9.13
2018-01-19T07:11:11.858Z,10.38
2018-01-19T07:13:40.837Z,9.85
2018-01-19T07:16:14.983Z,9.17
2018-01-19T07:18:44.285Z,10.00
2018-01-19T07:21:14.509Z,10.10
2018-01-19T07:23:42.326Z,9.50
2018-01-19T07:26:10.515Z,10.93
2018-01-19T07:28:40.605Z,12.23
2018-01-19T07:31:08.697Z,10.47
2018-01-19T07:33:39.671Z,12.90
2018-01-19T07:36:07.502Z,10.83
2018-01-19T07:38:35.704Z,10.67
2018-01-19T07:41:03.834Z,13.57
2018-01-19T07:43:31.647Z,11.43
2018-01-19T07:46:03.563Z,11.93
2018-01-19T07:48:35.615Z,11.40
2018-01-19T07:51:09.788Z,10.90
2018-01-19T07:53:37.541Z,9.63
2018-01-19T07:56:05.319Z,11.45
2018-01-19T07:58:33.599Z,11.93
2018-01-19T08:01:01.631Z,11.52
2018-01-19T08:03:33.696Z,10.40
2018-01-19T08:06:01.687Z,11.30
2018-01-19T08:08:29.961Z,12.33
2018-01-19T08:10:58.045Z,10.07
2018-01-19T08:13:28.266Z,9.80
2018-01-19T08:15:56.105Z,10.50
2018-01-19T08:18:25.952Z,9.90
2018-01-19T08:20:53.752Z,9.40
2018-01-19T08:23:21.817Z,11.07
2018-01-19T08:25:50.772Z,11.12
2018-01-19T08:28:18.527Z,11.30
2018-01-19T08:30:50.839Z,11.00
2018-01-19T08:33:18.672Z,11.07
2018-01-19T08:35:52.897Z,9.33
2018-01-19T08:38:22.799Z,10.80
2018-01-19T08:40:50.563Z,11.40
2018-01-19T08:43:18.361Z,10.23
2018-01-19T08:45:50.870Z,10.88
2018-01-19T08:48:18.954Z,11.53
2018-01-19T08:50:55.169Z,10.07
2018-01-19T08:53:23.191Z,10.03
2018-01-19T08:55:51.223Z,10.37
2018-01-19T08:58:19.223Z,10.88
2018-01-19T09:00:49.297Z,10.57
2018-01-19T09:03:17.094Z,11.00
2018-01-19T09:05:47.045Z,10.07
2018-01-19T09:08:15.050Z,10.10
2018-01-19T09:10:43.094Z,10.23
2018-01-19T09:13:11.334Z,10.20
2018-01-19T09:15:39.375Z,9.70
2018-01-19T09:18:07.598Z,10.10
2018-01-19T09:20:35.381Z,8.73
2018-01-19T09:23:03.599Z,9.82
2018-01-19T09:25:31.597Z,9.13
2018-01-19T09:27:59.875Z,10.47
2018-01-19T09:30:27.842Z,10.37
2018-01-19T09:32:56.016Z,9.63
2018-01-19T09:35:26.056Z,10.38
2018-01-19T09:37:56.274Z,10.17
2018-01-19T09:40:24.428Z,10.60
2018-01-19T09:42:56.296Z,10.90
2018-01-19T09:45:24.511Z,10.10
2018-01-19T09:47:52.629Z,10.45
2018-01-19T09:50:20.548Z,10.85
2018-01-19T09:52:50.717Z,12.25
2018-01-19T09:55:18.546Z,9.23
2018-01-19T09:57:46.219Z,10.83
2018-01-19T10:00:15.239Z,11.25
2018-01-19T10:02:45.473Z,9.77
2018-01-19T10:05:13.530Z,11.20
2018-01-19T10:07:42.426Z,9.90
2018-01-19T10:10:14.599Z,10.03
2018-01-19T10:12:42.517Z,10.67
2018-01-19T10:15:10.636Z,10.27
2018-01-19T10:17:38.803Z,9.90
2018-01-19T10:20:07.054Z,10.03
2018-01-19T10:22:35.019Z,8.77
2018-01-19T10:25:03.685Z,10.00
2018-01-19T10:27:33.896Z,9.53
2018-01-19T10:30:01.931Z,8.83
2018-01-19T10:32:29.708Z,9.00
2018-01-19T10:34:59.608Z,9.00
2018-01-19T10:37:29.843Z,9.80
2018-01-19T10:39:59.829Z,10.32
2018-01-19T10:42:28.003Z,9.70
2018-01-19T10:44:56.088Z,8.87
2018-01-19T10:47:24.000Z,9.43
2018-01-19T10:49:52.189Z,9.60
2018-01-19T10:52:24.398Z,8.83
2018-01-19T10:54:52.510Z,9.07
2018-01-19T10:57:22.737Z,8.87
2018-01-19T10:59:51.071Z,9.50
2018-01-19T11:02:18.842Z,8.10
2018-01-19T11:04:47.065Z,9.20
2018-01-19T11:07:14.975Z,8.90
2018-01-19T11:09:47.038Z,8.80
2018-01-19T11:12:14.798Z,8.20
2018-01-19T11:14:45.029Z,8.03
2018-01-19T11:17:12.792Z,9.60
2018-01-19T11:19:44.605Z,8.23
2018-01-19T11:22:12.624Z,8.73
2018-01-19T11:24:44.720Z,9.30
2018-01-19T11:27:14.611Z,9.50
2018-01-19T11:29:42.682Z,9.57
2018-01-19T11:32:11.664Z,8.27
2018-01-19T11:34:39.470Z,9.73
2018-01-19T11:37:08.166Z,8.50
2018-01-19T11:39:42.101Z,8.67
2018-01-19T11:42:09.813Z,9.13
2018-01-19T11:44:39.707Z,8.63
2018-01-19T11:47:07.915Z,7.77
2018-01-19T11:49:40.179Z,8.43
2018-01-19T11:52:08.904Z,9.75
2018-01-19T11:54:36.621Z,8.43
2018-01-19T11:57:04.660Z,8.43
2018-01-19T11:59:32.501Z,8.77
2018-01-19T12:02:02.642Z,9.25
2018-01-19T12:04:30.718Z,8.80
2018-01-19T12:07:00.632Z,8.90
2018-01-19T12:09:28.392Z,8.00
2018-01-19T12:11:56.501Z,8.20
2018-01-19T12:14:24.523Z,9.65
2018-01-19T12:16:52.308Z,9.50
2018-01-19T12:19:26.524Z,8.75
2018-01-19T12:21:54.766Z,9.23
2018-01-19T12:24:22.696Z,9.00
2018-01-19T12:26:50.719Z,8.23
2018-01-19T12:29:18.865Z,10.05
2018-01-19T12:31:46.507Z,9.33
2018-01-19T12:34:16.784Z,8.90
2018-01-19T12:36:44.535Z,7.93
2018-01-19T12:39:14.779Z,8.20
2018-01-19T12:41:46.876Z,7.97
2018-01-19T12:44:15.059Z,8.80
2018-01-19T12:46:42.975Z,8.77
2018-01-19T12:49:10.736Z,9.23
2018-01-19T12:51:40.731Z,8.50
2018-01-19T12:54:08.920Z,8.43
2018-01-19T12:56:36.795Z,8.60
2018-01-19T12:59:08.847Z,9.13
2018-01-19T13:01:36.994Z,8.37
2018-01-19T13:04:05.282Z,8.70
2018-01-19T13:06:35.308Z,9.33
2018-01-19T13:09:07.888Z,8.60
2018-01-19T13:11:37.191Z,9.35
2018-01-19T13:14:06.183Z,8.75
2018-01-19T13:16:33.959Z,8.85
2018-01-19T13:19:01.927Z,8.70
2018-01-19T13:21:29.842Z,6.73
2018-01-19T13:23:57.851Z,8.85
2018-01-19T13:26:29.923Z,9.18
2018-01-19T13:28:57.737Z,9.37
2018-01-19T13:31:28.831Z,8.30
2018-01-19T13:33:56.600Z,8.33
2018-01-19T13:36:24.973Z,9.07
2018-01-19T13:38:55.080Z,9.33
2018-01-19T13:41:23.016Z,9.65
2018-01-19T13:43:50.781Z,9.48
2018-01-19T13:46:18.804Z,8.83
2018-01-19T13:48:48.714Z,8.07
2018-01-19T13:51:16.468Z,8.00
2018-01-19T13:53:44.270Z,7.93
2018-01-19T13:56:19.070Z,9.43
2018-01-19T13:58:47.135Z,8.73
2018-01-19T14:01:15.891Z,9.07
2018-01-19T14:03:43.589Z,9.77
2018-01-19T14:06:11.822Z,8.77
2018-01-19T14:08:41.881Z,8.68
2018-01-19T14:11:10.730Z,9.45
2018-01-19T14:13:38.979Z,9.27
2018-01-19T14:16:06.699Z,8.77
2018-01-19T14:18:34.472Z,10.35
2018-01-19T14:21:06.618Z,8.73
2018-01-19T14:23:34.855Z,9.33
2018-01-19T14:26:07.013Z,9.53
2018-01-19T14:28:35.044Z,10.97
2018-01-19T14:31:02.877Z,10.03
2018-01-19T14:33:32.794Z,9.50
2018-01-19T14:36:00.997Z,9.20
2018-01-19T14:38:31.943Z,8.47
2018-01-19T14:40:59.583Z,9.77
2018-01-19T14:43:29.621Z,8.87
2018-01-19T14:45:57.872Z,8.10
2018-01-19T14:48:25.797Z,8.63
2018-01-19T14:50:53.471Z,8.67
2018-01-19T14:53:21.109Z,8.90
2018-01-19T14:55:49.720Z,10.23
2018-01-19T14:58:17.366Z,10.40
2018-01-19T15:00:45.048Z,10.60
2018-01-19T15:03:12.701Z,10.40
2018-01-19T15:05:44.708Z,10.80
2018-01-19T15:08:12.471Z,10.43
2018-01-19T15:10:40.853Z,9.93
2018-01-19T15:13:16.668Z,10.97
2018-01-19T15:15:44.860Z,11.93
2018-01-19T15:18:12.840Z,12.73
2018-01-19T15:20:40.965Z,13.43
2018-01-19T15:23:09.082Z,13.23
2018-01-19T15:25:37.021Z,13.43
2018-01-19T15:28:05.213Z,13.60
2018-01-19T15:30:33.155Z,13.17
2018-01-19T15:33:05.220Z,12.47
2018-01-19T15:35:33.443Z,13.40
2018-01-19T15:38:01.344Z,13.83
2018-01-19T15:40:33.388Z,13.67
2018-01-19T15:43:01.504Z,13.93
2018-01-19T15:45:31.421Z,13.33
2018-01-19T15:47:59.488Z,15.67
2018-01-19T15:50:29.689Z,20.13
2018-01-19T15:52:58.020Z,20.60
2018-01-19T15:55:26.703Z,18.85
2018-01-19T15:57:54.782Z,28.97
2018-01-19T16:00:22.850Z,25.87
2018-01-19T16:02:51.530Z,26.50
2018-01-19T16:05:19.311Z,27.97
2018-01-19T16:07:54.813Z,26.87
2018-01-19T16:10:24.967Z,28.73
2018-01-19T16:12:52.920Z,30.87
2018-01-19T16:15:26.207Z,31.10
2018-01-19T16:17:54.150Z,35.63
2018-01-19T16:20:26.640Z,33.67
2018-01-19T16:22:56.780Z,33.83
2018-01-19T16:25:25.058Z,38.50
2018-01-19T16:27:53.285Z,42.47
2018-01-19T16:30:21.274Z,36.10
2018-01-19T16:32:49.577Z,35.57
2018-01-19T16:35:17.666Z,39.43
2018-01-19T16:37:49.112Z,37.83
2018-01-19T16:40:17.687Z,33.23
2018-01-19T16:42:45.804Z,35.50
2018-01-19T16:45:13.631Z,34.50
2018-01-19T16:47:44.186Z,30.90
2018-01-19T16:50:12.304Z,34.23
2018-01-19T16:52:43.065Z,34.50
2018-01-19T16:55:11.207Z,39.13
2018-01-19T16:57:39.372Z,36.97
2018-01-19T17:00:07.463Z,39.00
2018-01-19T17:02:42.145Z,38.33
2018-01-19T17:05:12.011Z,41.40
2018-01-19T17:07:40.594Z,41.87
2018-01-19T17:10:09.391Z,40.73
2018-01-19T17:12:42.685Z,40.70
2018-01-19T17:15:10.505Z,40.67
2018-01-19T17:17:40.981Z,41.77
2018-01-19T17:20:09.039Z,42.17
2018-01-19T17:22:37.417Z,42.50
2018-01-19T17:25:06.567Z,44.33
2018-01-19T17:27:34.804Z,41.97
2018-01-19T17:30:05.019Z,40.83
2018-01-19T17:32:33.119Z,43.07
2018-01-19T17:35:01.331Z,41.93
2018-01-19T17:37:29.626Z,40.40
2018-01-19T17:40:00.435Z,41.77
2018-01-19T17:42:30.480Z,42.53
2018-01-19T17:44:58.418Z,41.70
2018-01-19T17:47:27.351Z,39.43
2018-01-19T17:49:55.475Z,42.07
2018-01-19T17:52:25.686Z,41.27
2018-01-19T17:54:59.252Z,42.03
2018-01-19T17:57:27.307Z,39.33
2018-01-19T17:59:55.765Z,40.30
2018-01-19T18:02:28.074Z,38.90
2018-01-19T18:04:56.490Z,39.57
2018-01-19T18:07:24.839Z,38.33
2018-01-19T18:09:55.043Z,38.80
2018-01-19T18:12:23.616Z,38.23
2018-01-19T18:14:53.403Z,36.87
2018-01-19T18:17:21.593Z,35.13
2018-01-19T18:19:52.560Z,36.97
2018-01-19T18:22:21.326Z,35.63
2018-01-19T18:24:50.115Z,35.70
2018-01-19T18:27:22.285Z,35.33
2018-01-19T18:29:51.173Z,33.77
2018-01-19T18:32:19.137Z,32.93
2018-01-19T18:34:46.805Z,32.60
2018-01-19T18:37:14.642Z,33.90
2018-01-19T18:39:42.868Z,31.97
2018-01-19T18:42:10.900Z,33.30
2018-01-19T18:44:40.951Z,32.97
2018-01-19T18:47:09.835Z,33.23
2018-01-19T18:49:37.800Z,32.30
2018-01-19T18:52:06.286Z,32.67
2018-01-19T18:54:34.443Z,33.47
2018-01-19T18:57:09.766Z,36.97
2018-01-19T18:59:37.870Z,37.57
2018-01-19T19:02:12.246Z,36.63
2018-01-19T19:04:40.437Z,39.77
2018-01-19T19:07:08.380Z,37.47
2018-01-19T19:09:38.553Z,39.40
2018-01-19T19:12:07.784Z,47.13
2018-01-19T19:14:35.749Z,50.43
2018-01-19T19:17:11.541Z,52.40
2018-01-19T19:19:39.481Z,54.33
2018-01-19T19:22:10.561Z,57.93
2018-01-19T19:24:38.386Z,60.80
2018-01-19T19:27:10.096Z,68.43
2018-01-19T19:29:42.810Z,71.10
2018-01-19T19:32:10.934Z,73.47
2018-01-19T19:34:39.848Z,72.13
2018-01-19T19:37:08.213Z,83.93
2018-01-19T19:39:39.970Z,79.73
2018-01-19T19:42:08.880Z,77.07
2018-01-19T19:44:36.807Z,82.53
2018-01-19T19:47:09.708Z,83.97
2018-01-19T19:49:40.251Z,86.33
2018-01-19T19:52:07.935Z,84.37
2018-01-19T19:54:35.621Z,87.60
2018-01-19T19:57:03.645Z,85.87
2018-01-19T19:59:31.688Z,84.33
2018-01-19T20:01:59.981Z,81.17
2018-01-19T20:04:28.268Z,74.90
2018-01-19T20:06:58.776Z,73.30
2018-01-19T20:09:26.715Z,74.00
2018-01-19T20:11:54.880Z,70.87
2018-01-19T20:14:24.951Z,68.77
2018-01-19T20:16:57.307Z,64.50
2018-01-19T20:19:25.388Z,68.23
2018-01-19T20:21:55.968Z,66.53
2018-01-19T20:24:26.208Z,67.50
2018-01-19T20:26:54.410Z,63.47
2018-01-19T20:29:25.352Z,64.53
2018-01-19T20:31:55.576Z,64.37
2018-01-19T20:34:23.694Z,65.03
2018-01-19T20:36:51.911Z,62.80
2018-01-19T20:39:19.960Z,68.57
2018-01-19T20:41:48.368Z,69.20
2018-01-19T20:44:20.264Z,65.63
2018-01-19T20:46:48.382Z,68.13
2018-01-19T20:49:16.973Z,65.50
2018-01-19T20:51:45.103Z,65.77
2018-01-19T20:54:19.585Z,70.10
2018-01-19T20:56:50.356Z,66.90
2018-01-19T20:59:22.374Z,68.67
2018-01-19T21:01:50.415Z,71.43
2018-01-19T21:04:18.330Z,71.83
2018-01-19T21:06:49.136Z,74.20
2018-01-19T21:09:17.936Z,75.13
2018-01-19T21:11:46.052Z,73.20
2018-01-19T21:14:16.777Z,73.63
2018-01-19T21:16:45.610Z,74.80
2018-01-19T21:19:13.547Z,71.40
2018-01-19T21:21:41.938Z,74.40
2018-01-19T21:24:14.244Z,72.77
2018-01-19T21:26:44.155Z,72.30
2018-01-19T21:29:12.310Z,72.93
2018-01-19T21:31:40.525Z,67.73
2018-01-19T21:34:10.522Z,68.47
2018-01-19T21:36:38.708Z,65.50
2018-01-19T21:39:08.811Z,70.27
2018-01-19T21:41:36.876Z,65.80
2018-01-19T21:44:05.030Z,63.60
2018-01-19T21:46:33.192Z,61.93
2018-01-19T21:49:06.386Z,64.87
2018-01-19T21:51:34.577Z,61.57
2018-01-19T21:54:02.514Z,60.03
2018-01-19T21:56:30.780Z,61.57
2018-01-19T21:58:58.806Z,60.63
2018-01-19T22:01:29.888Z,58.00
2018-01-19T22:03:58.123Z,59.53
2018-01-19T22:06:26.703Z,58.97
2018-01-19T22:08:58.570Z,58.97
2018-01-19T22:11:26.341Z,57.80
2018-01-19T22:13:54.034Z,59.60
2018-01-19T22:16:22.672Z,57.83
2018-01-19T22:18:50.796Z,58.17
2018-01-19T22:21:18.616Z,60.23
2018-01-19T22:23:50.852Z,58.20
2018-01-19T22:26:19.275Z,56.87
2018-01-19T22:28:47.315Z,56.07
2018-01-19T22:31:16.110Z,58.07
2018-01-19T22:33:44.496Z,56.80
2018-01-19T22:36:13.256Z,56.53
2018-01-19T22:38:41.449Z,57.73
2018-01-19T22:41:13.976Z,57.27
2018-01-19T22:43:44.050Z,56.27
2018-01-19T22:46:14.115Z,54.50
2018-01-19T22:48:42.333Z,52.03
2018-01-19T22:51:10.995Z,52.57
2018-01-19T22:53:45.646Z,53.03
2018-01-19T22:56:13.415Z,50.47
2018-01-19T22:58:43.518Z,50.43
2018-01-19T23:01:20.615Z,49.87
2018-01-19T23:03:48.687Z,49.47
2018-01-19T23:06:18.949Z,48.50
2018-01-19T23:08:47.029Z,49.27
2018-01-19T23:11:16.286Z,48.93
2018-01-19T23:13:43.940Z,47.10
2018-01-19T23:16:13.960Z,48.77
2018-01-19T23:18:42.645Z,44.77
2018-01-19T23:21:12.868Z,44.50
2018-01-19T23:23:41.123Z,46.13
2018-01-19T23:26:09.160Z,44.80
2018-01-19T23:28:38.297Z,45.73
2018-01-19T23:31:06.194Z,44.70
2018-01-19T23:33:34.209Z,43.80
2018-01-19T23:36:06.514Z,41.20
2018-01-19T23:38:34.270Z,43.77
2018-01-19T23:41:01.991Z,43.13
2018-01-19T23:43:29.871Z,42.47
2018-01-19T23:45:57.936Z,43.63
2018-01-19T23:48:26.127Z,42.23
2018-01-19T23:50:54.066Z,42.93
2018-01-19T23:53:22.133Z,43.40
2018-01-19T23:55:50.321Z,42.20
2018-01-19T23:58:18.325Z,42.13
